sensor_id;sensor_type;location;lat;lon;timestamp;P1;durP1;ratioP1;P2;durP2;ratioP2
66421;SDS011;53228;51.380;0.098;2022-11-15T00:00:21;6.75;;;2.75;;
66421;SDS011;53228;51.380;0.098;2022-11-15T00:03:08;6.85;;;2.92;;
66421;SDS011;53228;51.380;0.098;2022-11-15T00:06:02;12.15;;;3.05;;
66421;SDS011;53228;51.380;0.098;2022-11-15T00:08:49;7.82;;;3.13;;
66421;SDS011;53228;51.380;0.098;2022-11-15T00:11:35;6.78;;;3.30;;
66421;SDS011;53228;51.380;0.098;2022-11-15T00:14:22;7.70;;;3.20;;
66421;SDS011;53228;51.380;0.098;2022-11-15T00:17:08;5.03;;;2.90;;
66421;SDS011;53228;51.380;0.098;2022-11-15T00:19:55;9.80;;;3.35;;
66421;SDS011;53228;51.380;0.098;2022-11-15T00:22:44;14.82;;;3.33;;
66421;SDS011;53228;51.380;0.098;2022-11-15T00:25:31;10.18;;;2.95;;
66421;SDS011;53228;51.380;0.098;2022-11-15T00:28:18;9.30;;;2.53;;
66421;SDS011;53228;51.380;0.098;2022-11-15T00:31:09;8.80;;;2.22;;
66421;SDS011;53228;51.380;0.098;2022-11-15T00:36:44;9.85;;;1.88;;
66421;SDS011;53228;51.380;0.098;2022-11-15T00:39:35;5.45;;;1.90;;
66421;SDS011;53228;51.380;0.098;2022-11-15T00:42:21;5.95;;;1.70;;
66421;SDS011;53228;51.380;0.098;2022-11-15T00:45:08;9.95;;;1.85;;
66421;SDS011;53228;51.380;0.098;2022-11-15T00:47:58;11.07;;;2.25;;
66421;SDS011;53228;51.380;0.098;2022-11-15T00:50:44;5.55;;;1.58;;
66421;SDS011;53228;51.380;0.098;2022-11-15T00:53:31;5.88;;;1.48;;
66421;SDS011;53228;51.380;0.098;2022-11-15T00:56:18;5.85;;;1.33;;
66421;SDS011;53228;51.380;0.098;2022-11-15T00:59:07;10.23;;;1.52;;
66421;SDS011;53228;51.380;0.098;2022-11-15T01:01:56;6.53;;;1.15;;
66421;SDS011;53228;51.380;0.098;2022-11-15T01:04:43;8.00;;;1.40;;
66421;SDS011;53228;51.380;0.098;2022-11-15T01:07:29;7.13;;;1.40;;
66421;SDS011;53228;51.380;0.098;2022-11-15T01:10:15;4.50;;;1.20;;
66421;SDS011;53228;51.380;0.098;2022-11-15T01:13:02;5.55;;;0.77;;
66421;SDS011;53228;51.380;0.098;2022-11-15T01:15:50;5.13;;;1.10;;
66421;SDS011;53228;51.380;0.098;2022-11-15T01:18:39;6.32;;;1.20;;
66421;SDS011;53228;51.380;0.098;2022-11-15T01:21:27;6.03;;;1.65;;
66421;SDS011;53228;51.380;0.098;2022-11-15T01:24:13;5.47;;;1.45;;
66421;SDS011;53228;51.380;0.098;2022-11-15T01:27:00;5.40;;;1.20;;
66421;SDS011;53228;51.380;0.098;2022-11-15T01:29:46;11.82;;;1.23;;
66421;SDS011;53228;51.380;0.098;2022-11-15T01:32:37;3.50;;;1.30;;
66421;SDS011;53228;51.380;0.098;2022-11-15T01:35:30;6.28;;;1.67;;
66421;SDS011;53228;51.380;0.098;2022-11-15T01:38:17;8.35;;;1.23;;
66421;SDS011;53228;51.380;0.098;2022-11-15T01:41:05;9.50;;;1.10;;
66421;SDS011;53228;51.380;0.098;2022-11-15T01:43:52;7.47;;;1.33;;
66421;SDS011;53228;51.380;0.098;2022-11-15T01:46:40;11.50;;;1.60;;
66421;SDS011;53228;51.380;0.098;2022-11-15T01:49:35;5.63;;;1.33;;
66421;SDS011;53228;51.380;0.098;2022-11-15T01:52:25;10.70;;;1.80;;
66421;SDS011;53228;51.380;0.098;2022-11-15T01:55:15;8.80;;;1.88;;
66421;SDS011;53228;51.380;0.098;2022-11-15T01:58:09;15.02;;;2.13;;
66421;SDS011;53228;51.380;0.098;2022-11-15T02:00:56;4.90;;;1.25;;
66421;SDS011;53228;51.380;0.098;2022-11-15T02:03:56;6.28;;;1.38;;
66421;SDS011;53228;51.380;0.098;2022-11-15T02:06:45;4.78;;;1.17;;
66421;SDS011;53228;51.380;0.098;2022-11-15T02:09:35;5.18;;;1.48;;
66421;SDS011;53228;51.380;0.098;2022-11-15T02:12:23;4.65;;;0.90;;
66421;SDS011;53228;51.380;0.098;2022-11-15T02:15:09;15.13;;;1.40;;
66421;SDS011;53228;51.380;0.098;2022-11-15T02:18:10;7.95;;;1.40;;
66421;SDS011;53228;51.380;0.098;2022-11-15T02:33:03;6.03;;;1.10;;
66421;SDS011;53228;51.380;0.098;2022-11-15T02:39:17;10.88;;;0.80;;
66421;SDS011;53228;51.380;0.098;2022-11-15T02:42:12;8.50;;;0.90;;
66421;SDS011;53228;51.380;0.098;2022-11-15T02:45:26;5.53;;;1.00;;
66421;SDS011;53228;51.380;0.098;2022-11-15T02:48:16;5.07;;;1.00;;
66421;SDS011;53228;51.380;0.098;2022-11-15T02:51:03;2.75;;;1.23;;
66421;SDS011;53228;51.380;0.098;2022-11-15T02:53:49;9.13;;;0.88;;
66421;SDS011;53228;51.380;0.098;2022-11-15T02:56:36;12.02;;;1.30;;
66421;SDS011;53228;51.380;0.098;2022-11-15T03:05:44;8.05;;;1.20;;
66421;SDS011;53228;51.380;0.098;2022-11-15T03:09:14;12.05;;;1.45;;
66421;SDS011;53228;51.380;0.098;2022-11-15T03:12:20;7.15;;;1.08;;
66421;SDS011;53228;51.380;0.098;2022-11-15T03:18:21;11.63;;;1.75;;
66421;SDS011;53228;51.380;0.098;2022-11-15T03:21:16;3.95;;;1.15;;
66421;SDS011;53228;51.380;0.098;2022-11-15T03:24:06;7.53;;;1.30;;
66421;SDS011;53228;51.380;0.098;2022-11-15T03:26:54;5.18;;;1.00;;
66421;SDS011;53228;51.380;0.098;2022-11-15T03:29:44;9.00;;;1.20;;
66421;SDS011;53228;51.380;0.098;2022-11-15T03:32:48;6.25;;;1.00;;
66421;SDS011;53228;51.380;0.098;2022-11-15T03:35:40;3.92;;;1.25;;
66421;SDS011;53228;51.380;0.098;2022-11-15T03:38:30;9.43;;;1.20;;
66421;SDS011;53228;51.380;0.098;2022-11-15T03:41:23;5.35;;;0.93;;
66421;SDS011;53228;51.380;0.098;2022-11-15T03:44:31;8.65;;;1.08;;
66421;SDS011;53228;51.380;0.098;2022-11-15T03:47:30;8.23;;;1.05;;
66421;SDS011;53228;51.380;0.098;2022-11-15T03:50:24;6.80;;;1.20;;
66421;SDS011;53228;51.380;0.098;2022-11-15T03:53:13;6.43;;;1.40;;
66421;SDS011;53228;51.380;0.098;2022-11-15T03:55:59;8.68;;;0.93;;
66421;SDS011;53228;51.380;0.098;2022-11-15T03:58:46;17.20;;;1.10;;
66421;SDS011;53228;51.380;0.098;2022-11-15T04:01:32;5.90;;;0.80;;
66421;SDS011;53228;51.380;0.098;2022-11-15T04:04:19;9.45;;;1.40;;
66421;SDS011;53228;51.380;0.098;2022-11-15T04:07:06;4.80;;;1.52;;
66421;SDS011;53228;51.380;0.098;2022-11-15T04:09:52;13.73;;;1.05;;
66421;SDS011;53228;51.380;0.098;2022-11-15T04:12:50;8.65;;;0.93;;
66421;SDS011;53228;51.380;0.098;2022-11-15T04:15:39;3.35;;;1.55;;
66421;SDS011;53228;51.380;0.098;2022-11-15T04:18:29;8.10;;;0.93;;
66421;SDS011;53228;51.380;0.098;2022-11-15T04:21:16;8.68;;;1.33;;
66421;SDS011;53228;51.380;0.098;2022-11-15T04:24:20;6.55;;;1.10;;
66421;SDS011;53228;51.380;0.098;2022-11-15T04:27:09;7.90;;;1.15;;
66421;SDS011;53228;51.380;0.098;2022-11-15T04:29:58;5.88;;;0.98;;
66421;SDS011;53228;51.380;0.098;2022-11-15T04:32:44;5.13;;;1.05;;
66421;SDS011;53228;51.380;0.098;2022-11-15T04:35:30;5.60;;;1.38;;
66421;SDS011;53228;51.380;0.098;2022-11-15T04:38:19;5.90;;;1.77;;
66421;SDS011;53228;51.380;0.098;2022-11-15T04:41:06;7.05;;;1.67;;
66421;SDS011;53228;51.380;0.098;2022-11-15T04:43:54;7.55;;;1.55;;
66421;SDS011;53228;51.380;0.098;2022-11-15T04:46:40;3.40;;;1.10;;
66421;SDS011;53228;51.380;0.098;2022-11-15T04:49:34;9.27;;;1.83;;
66421;SDS011;53228;51.380;0.098;2022-11-15T04:52:24;9.85;;;1.42;;
66421;SDS011;53228;51.380;0.098;2022-11-15T04:55:11;6.72;;;1.45;;
66421;SDS011;53228;51.380;0.098;2022-11-15T04:58:00;12.80;;;1.92;;
66421;SDS011;53228;51.380;0.098;2022-11-15T05:00:50;7.68;;;1.67;;
66421;SDS011;53228;51.380;0.098;2022-11-15T05:03:36;6.53;;;1.90;;
66421;SDS011;53228;51.380;0.098;2022-11-15T05:06:41;9.52;;;1.98;;
66421;SDS011;53228;51.380;0.098;2022-11-15T05:09:28;9.40;;;1.98;;
66421;SDS011;53228;51.380;0.098;2022-11-15T05:12:16;8.80;;;1.60;;
66421;SDS011;53228;51.380;0.098;2022-11-15T05:15:05;6.93;;;2.33;;
66421;SDS011;53228;51.380;0.098;2022-11-15T05:17:56;8.30;;;2.10;;
66421;SDS011;53228;51.380;0.098;2022-11-15T05:20:43;16.70;;;2.42;;
66421;SDS011;53228;51.380;0.098;2022-11-15T05:23:31;11.75;;;2.40;;
66421;SDS011;53228;51.380;0.098;2022-11-15T05:26:18;9.18;;;2.45;;
66421;SDS011;53228;51.380;0.098;2022-11-15T05:29:04;5.95;;;2.40;;
66421;SDS011;53228;51.380;0.098;2022-11-15T05:31:51;8.18;;;3.05;;
66421;SDS011;53228;51.380;0.098;2022-11-15T05:34:42;6.63;;;2.50;;
66421;SDS011;53228;51.380;0.098;2022-11-15T05:37:28;9.77;;;2.90;;
66421;SDS011;53228;51.380;0.098;2022-11-15T05:40:15;11.05;;;2.72;;
66421;SDS011;53228;51.380;0.098;2022-11-15T05:43:02;10.65;;;2.70;;
66421;SDS011;53228;51.380;0.098;2022-11-15T05:45:51;12.75;;;3.08;;
66421;SDS011;53228;51.380;0.098;2022-11-15T05:48:41;7.78;;;2.75;;
66421;SDS011;53228;51.380;0.098;2022-11-15T05:51:35;10.52;;;2.25;;
66421;SDS011;53228;51.380;0.098;2022-11-15T05:54:22;12.68;;;2.58;;
66421;SDS011;53228;51.380;0.098;2022-11-15T05:57:10;13.68;;;3.47;;
66421;SDS011;53228;51.380;0.098;2022-11-15T06:00:00;5.05;;;2.55;;
66421;SDS011;53228;51.380;0.098;2022-11-15T06:02:48;5.30;;;2.40;;
66421;SDS011;53228;51.380;0.098;2022-11-15T06:05:38;6.13;;;2.28;;
66421;SDS011;53228;51.380;0.098;2022-11-15T06:08:29;8.57;;;2.90;;
66421;SDS011;53228;51.380;0.098;2022-11-15T06:11:17;9.70;;;3.55;;
66421;SDS011;53228;51.380;0.098;2022-11-15T06:14:05;9.38;;;3.15;;
66421;SDS011;53228;51.380;0.098;2022-11-15T06:16:53;4.95;;;2.45;;
66421;SDS011;53228;51.380;0.098;2022-11-15T06:19:42;8.85;;;2.83;;
66421;SDS011;53228;51.380;0.098;2022-11-15T06:22:32;4.30;;;2.50;;
66421;SDS011;53228;51.380;0.098;2022-11-15T06:25:20;10.73;;;3.85;;
66421;SDS011;53228;51.380;0.098;2022-11-15T06:28:09;11.00;;;3.67;;
66421;SDS011;53228;51.380;0.098;2022-11-15T06:31:02;8.70;;;3.38;;
66421;SDS011;53228;51.380;0.098;2022-11-15T06:33:51;8.93;;;3.17;;
66421;SDS011;53228;51.380;0.098;2022-11-15T06:36:43;8.93;;;3.17;;
66421;SDS011;53228;51.380;0.098;2022-11-15T06:39:30;11.65;;;3.90;;
66421;SDS011;53228;51.380;0.098;2022-11-15T06:42:19;9.43;;;3.50;;
66421;SDS011;53228;51.380;0.098;2022-11-15T06:45:05;11.25;;;4.03;;
66421;SDS011;53228;51.380;0.098;2022-11-15T06:47:54;13.52;;;6.47;;
66421;SDS011;53228;51.380;0.098;2022-11-15T06:50:41;9.60;;;4.40;;
66421;SDS011;53228;51.380;0.098;2022-11-15T06:53:27;11.35;;;3.78;;
66421;SDS011;53228;51.380;0.098;2022-11-15T06:56:16;10.02;;;3.15;;
66421;SDS011;53228;51.380;0.098;2022-11-15T06:59:05;8.68;;;4.90;;
66421;SDS011;53228;51.380;0.098;2022-11-15T07:01:52;6.38;;;3.28;;
66421;SDS011;53228;51.380;0.098;2022-11-15T07:04:38;4.97;;;2.60;;
66421;SDS011;53228;51.380;0.098;2022-11-15T07:07:34;10.40;;;5.53;;
66421;SDS011;53228;51.380;0.098;2022-11-15T07:10:23;10.45;;;4.85;;
66421;SDS011;53228;51.380;0.098;2022-11-15T07:13:13;6.38;;;2.78;;
66421;SDS011;53228;51.380;0.098;2022-11-15T07:16:07;5.55;;;2.67;;
66421;SDS011;53228;51.380;0.098;2022-11-15T07:18:55;8.20;;;3.15;;
66421;SDS011;53228;51.380;0.098;2022-11-15T07:21:42;4.57;;;2.22;;
66421;SDS011;53228;51.380;0.098;2022-11-15T07:24:29;7.15;;;2.80;;
66421;SDS011;53228;51.380;0.098;2022-11-15T07:27:18;5.00;;;2.80;;
66421;SDS011;53228;51.380;0.098;2022-11-15T07:30:09;4.70;;;2.40;;
66421;SDS011;53228;51.380;0.098;2022-11-15T07:33:05;4.15;;;2.30;;
66421;SDS011;53228;51.380;0.098;2022-11-15T07:35:52;6.18;;;2.45;;
66421;SDS011;53228;51.380;0.098;2022-11-15T07:38:39;7.47;;;2.30;;
66421;SDS011;53228;51.380;0.098;2022-11-15T07:41:29;11.52;;;2.40;;
66421;SDS011;53228;51.380;0.098;2022-11-15T07:44:16;5.60;;;2.30;;
66421;SDS011;53228;51.380;0.098;2022-11-15T07:47:03;3.47;;;1.85;;
66421;SDS011;53228;51.380;0.098;2022-11-15T07:49:49;9.63;;;2.30;;
66421;SDS011;53228;51.380;0.098;2022-11-15T07:52:37;5.90;;;2.30;;
66421;SDS011;53228;51.380;0.098;2022-11-15T07:58:15;3.63;;;2.22;;
66421;SDS011;53228;51.380;0.098;2022-11-15T08:01:04;4.13;;;2.03;;
66421;SDS011;53228;51.380;0.098;2022-11-15T08:03:54;4.68;;;1.98;;
66421;SDS011;53228;51.380;0.098;2022-11-15T08:06:42;3.42;;;2.30;;
66421;SDS011;53228;51.380;0.098;2022-11-15T08:09:29;4.32;;;1.95;;
66421;SDS011;53228;51.380;0.098;2022-11-15T08:12:18;7.32;;;2.35;;
66421;SDS011;53228;51.380;0.098;2022-11-15T08:15:07;6.25;;;2.45;;
66421;SDS011;53228;51.380;0.098;2022-11-15T08:17:55;5.30;;;2.30;;
66421;SDS011;53228;51.380;0.098;2022-11-15T08:20:45;2.75;;;1.60;;
66421;SDS011;53228;51.380;0.098;2022-11-15T08:23:31;4.25;;;2.92;;
66421;SDS011;53228;51.380;0.098;2022-11-15T08:26:18;4.30;;;2.35;;
66421;SDS011;53228;51.380;0.098;2022-11-15T08:29:05;4.93;;;2.10;;
66421;SDS011;53228;51.380;0.098;2022-11-15T08:31:54;5.50;;;2.22;;
66421;SDS011;53228;51.380;0.098;2022-11-15T08:34:44;2.75;;;2.22;;
66421;SDS011;53228;51.380;0.098;2022-11-15T08:37:43;5.80;;;4.10;;
66421;SDS011;53228;51.380;0.098;2022-11-15T08:40:32;3.70;;;2.38;;
66421;SDS011;53228;51.380;0.098;2022-11-15T08:43:19;5.28;;;3.22;;
66421;SDS011;53228;51.380;0.098;2022-11-15T08:46:05;3.33;;;1.35;;
66421;SDS011;53228;51.380;0.098;2022-11-15T08:48:57;9.63;;;5.32;;
66421;SDS011;53228;51.380;0.098;2022-11-15T08:51:45;2.17;;;1.48;;
66421;SDS011;53228;51.380;0.098;2022-11-15T08:54:32;5.72;;;3.47;;
66421;SDS011;53228;51.380;0.098;2022-11-15T08:57:21;9.02;;;5.18;;
66421;SDS011;53228;51.380;0.098;2022-11-15T09:00:07;15.43;;;8.15;;
66421;SDS011;53228;51.380;0.098;2022-11-15T09:02:59;8.95;;;4.68;;
66421;SDS011;53228;51.380;0.098;2022-11-15T09:05:57;10.20;;;5.50;;
66421;SDS011;53228;51.380;0.098;2022-11-15T09:08:49;27.60;;;3.78;;
66421;SDS011;53228;51.380;0.098;2022-11-15T09:11:37;3.90;;;2.90;;
66421;SDS011;53228;51.380;0.098;2022-11-15T09:14:24;5.65;;;2.83;;
66421;SDS011;53228;51.380;0.098;2022-11-15T09:17:13;86.93;;;9.90;;
66421;SDS011;53228;51.380;0.098;2022-11-15T09:20:04;1.88;;;1.20;;
66421;SDS011;53228;51.380;0.098;2022-11-15T09:22:51;3.15;;;1.98;;
66421;SDS011;53228;51.380;0.098;2022-11-15T09:25:40;7.45;;;3.67;;
66421;SDS011;53228;51.380;0.098;2022-11-15T09:28:32;2.55;;;1.60;;
66421;SDS011;53228;51.380;0.098;2022-11-15T09:31:20;2.13;;;0.88;;
66421;SDS011;53228;51.380;0.098;2022-11-15T09:34:07;3.13;;;2.35;;
66421;SDS011;53228;51.380;0.098;2022-11-15T09:36:58;3.58;;;2.38;;
66421;SDS011;53228;51.380;0.098;2022-11-15T09:39:45;1.63;;;1.00;;
66421;SDS011;53228;51.380;0.098;2022-11-15T09:42:38;2.15;;;0.82;;
66421;SDS011;53228;51.380;0.098;2022-11-15T09:48:43;2.30;;;1.05;;
66421;SDS011;53228;51.380;0.098;2022-11-15T09:51:36;1.60;;;0.80;;
66421;SDS011;53228;51.380;0.098;2022-11-15T09:57:26;2.58;;;1.40;;
66421;SDS011;53228;51.380;0.098;2022-11-15T10:03:16;3.20;;;1.30;;
66421;SDS011;53228;51.380;0.098;2022-11-15T10:05:52;0.90;;;0.90;;
66421;SDS011;53228;51.380;0.098;2022-11-15T10:10:56;2.00;;;0.88;;
66421;SDS011;53228;51.380;0.098;2022-11-15T10:13:50;2.03;;;1.40;;
66421;SDS011;53228;51.380;0.098;2022-11-15T10:19:38;1.27;;;0.80;;
66421;SDS011;53228;51.380;0.098;2022-11-15T10:28:01;1.63;;;0.75;;
66421;SDS011;53228;51.380;0.098;2022-11-15T10:30:39;1.45;;;1.25;;
66421;SDS011;53228;51.380;0.098;2022-11-15T10:41:21;4.53;;;3.90;;
66421;SDS011;53228;51.380;0.098;2022-11-15T10:46:41;2.42;;;2.22;;
66421;SDS011;53228;51.380;0.098;2022-11-15T10:51:52;1.67;;;1.20;;
66421;SDS011;53228;51.380;0.098;2022-11-15T10:54:40;3.17;;;2.28;;
66421;SDS011;53228;51.380;0.098;2022-11-15T10:57:18;2.15;;;1.95;;
66421;SDS011;53228;51.380;0.098;2022-11-15T10:59:53;1.83;;;0.82;;
66421;SDS011;53228;51.380;0.098;2022-11-15T11:05:12;3.50;;;2.35;;
66421;SDS011;53228;51.380;0.098;2022-11-15T11:10:52;2.38;;;1.20;;
66421;SDS011;53228;51.380;0.098;2022-11-15T11:13:32;2.83;;;1.40;;
66421;SDS011;53228;51.380;0.098;2022-11-15T11:21:18;5.35;;;4.45;;
66421;SDS011;53228;51.380;0.098;2022-11-15T11:35:14;1.77;;;1.05;;
66421;SDS011;53228;51.380;0.098;2022-11-15T11:47:01;0.05;;;0.00;;
66421;SDS011;53228;51.380;0.098;2022-11-15T11:49:45;0.85;;;0.05;;
66421;SDS011;53228;51.380;0.098;2022-11-15T11:55:49;0.17;;;0.08;;
66421;SDS011;53228;51.380;0.098;2022-11-15T11:58:38;0.65;;;0.47;;
66421;SDS011;53228;51.380;0.098;2022-11-15T12:01:24;2.83;;;0.20;;
66421;SDS011;53228;51.380;0.098;2022-11-15T12:17:56;1.20;;;1.10;;
66421;SDS011;53228;51.380;0.098;2022-11-15T12:20:29;0.70;;;0.70;;
66421;SDS011;53228;51.380;0.098;2022-11-15T12:30:54;1.23;;;0.80;;
66421;SDS011;53228;51.380;0.098;2022-11-15T12:33:34;3.72;;;1.50;;
66421;SDS011;53228;51.380;0.098;2022-11-15T12:36:40;1.67;;;1.00;;
66421;SDS011;53228;51.380;0.098;2022-11-15T12:39:12;1.42;;;1.00;;
66421;SDS011;53228;51.380;0.098;2022-11-15T12:41:44;0.95;;;0.50;;
66421;SDS011;53228;51.380;0.098;2022-11-15T12:52:07;0.73;;;0.50;;
66421;SDS011;53228;51.380;0.098;2022-11-15T12:59:55;0.88;;;0.50;;
66421;SDS011;53228;51.380;0.098;2022-11-15T13:02:48;1.02;;;0.70;;
66421;SDS011;53228;51.380;0.098;2022-11-15T13:12:58;1.95;;;1.20;;
66421;SDS011;53228;51.380;0.098;2022-11-15T13:18:26;1.83;;;1.38;;
66421;SDS011;53228;51.380;0.098;2022-11-15T13:21:04;0.70;;;0.70;;
66421;SDS011;53228;51.380;0.098;2022-11-15T13:24:10;1.60;;;0.98;;
66421;SDS011;53228;51.380;0.098;2022-11-15T13:26:40;1.95;;;1.73;;
66421;SDS011;53228;51.380;0.098;2022-11-15T13:29:18;6.50;;;2.40;;
66421;SDS011;53228;51.380;0.098;2022-11-15T13:34:25;3.90;;;2.20;;
66421;SDS011;53228;51.380;0.098;2022-11-15T13:39:48;7.05;;;4.28;;
66421;SDS011;53228;51.380;0.098;2022-11-15T13:42:19;5.28;;;3.00;;
66421;SDS011;53228;51.380;0.098;2022-11-15T13:45:11;5.53;;;3.03;;
66421;SDS011;53228;51.380;0.098;2022-11-15T13:47:44;2.97;;;2.20;;
66421;SDS011;53228;51.380;0.098;2022-11-15T13:50:17;5.38;;;2.30;;
66421;SDS011;53228;51.380;0.098;2022-11-15T13:52:48;5.82;;;2.53;;
66421;SDS011;53228;51.380;0.098;2022-11-15T13:55:21;5.40;;;1.90;;
66421;SDS011;53228;51.380;0.098;2022-11-15T13:57:54;7.40;;;2.17;;
66421;SDS011;53228;51.380;0.098;2022-11-15T14:00:39;11.52;;;3.90;;
66421;SDS011;53228;51.380;0.098;2022-11-15T14:08:59;7.65;;;2.47;;
66421;SDS011;53228;51.380;0.098;2022-11-15T14:11:30;8.02;;;2.90;;
66421;SDS011;53228;51.380;0.098;2022-11-15T14:16:43;10.02;;;2.90;;
66421;SDS011;53228;51.380;0.098;2022-11-15T14:22:34;7.55;;;3.83;;
66421;SDS011;53228;51.380;0.098;2022-11-15T14:24:38;6.88;;;2.10;;
66421;SDS011;53228;51.380;0.098;2022-11-15T14:27:26;4.63;;;2.13;;
66421;SDS011;53228;51.380;0.098;2022-11-15T14:29:55;6.85;;;1.73;;
66421;SDS011;53228;51.380;0.098;2022-11-15T14:32:26;8.65;;;2.00;;
66421;SDS011;53228;51.380;0.098;2022-11-15T14:34:59;16.05;;;2.90;;
66421;SDS011;53228;51.380;0.098;2022-11-15T14:37:30;12.68;;;2.95;;
66421;SDS011;53228;51.380;0.098;2022-11-15T14:40:03;24.23;;;5.75;;
66421;SDS011;53228;51.380;0.098;2022-11-15T14:42:35;14.88;;;6.15;;
66421;SDS011;53228;51.380;0.098;2022-11-15T14:45:09;12.52;;;3.33;;
66421;SDS011;53228;51.380;0.098;2022-11-15T14:47:42;16.70;;;4.80;;
66421;SDS011;53228;51.380;0.098;2022-11-15T14:50:15;18.08;;;5.55;;
66421;SDS011;53228;51.380;0.098;2022-11-15T14:52:44;16.10;;;3.90;;
66421;SDS011;53228;51.380;0.098;2022-11-15T14:55:18;12.88;;;2.92;;
66421;SDS011;53228;51.380;0.098;2022-11-15T14:57:52;17.77;;;4.28;;
66421;SDS011;53228;51.380;0.098;2022-11-15T15:00:21;16.90;;;3.08;;
66421;SDS011;53228;51.380;0.098;2022-11-15T15:02:50;13.70;;;3.45;;
66421;SDS011;53228;51.380;0.098;2022-11-15T15:05:25;11.75;;;2.97;;
66421;SDS011;53228;51.380;0.098;2022-11-15T15:10:42;14.25;;;4.75;;
66421;SDS011;53228;51.380;0.098;2022-11-15T15:13:21;29.08;;;7.00;;
66421;SDS011;53228;51.380;0.098;2022-11-15T15:15:51;27.05;;;4.85;;
66421;SDS011;53228;51.380;0.098;2022-11-15T15:18:19;21.85;;;5.13;;
66421;SDS011;53228;51.380;0.098;2022-11-15T15:20:56;20.42;;;4.30;;
66421;SDS011;53228;51.380;0.098;2022-11-15T15:23:33;21.88;;;5.00;;
66421;SDS011;53228;51.380;0.098;2022-11-15T15:26:03;32.83;;;8.25;;
66421;SDS011;53228;51.380;0.098;2022-11-15T15:28:31;26.25;;;6.60;;
66421;SDS011;53228;51.380;0.098;2022-11-15T15:31:01;18.70;;;5.65;;
66421;SDS011;53228;51.380;0.098;2022-11-15T15:33:33;16.40;;;4.03;;
66421;SDS011;53228;51.380;0.098;2022-11-15T15:38:34;8.68;;;2.22;;
66421;SDS011;53228;51.380;0.098;2022-11-15T15:41:02;22.30;;;7.38;;
66421;SDS011;53228;51.380;0.098;2022-11-15T15:43:30;9.25;;;3.50;;
66421;SDS011;53228;51.380;0.098;2022-11-15T15:45:58;17.48;;;3.38;;
66421;SDS011;53228;51.380;0.098;2022-11-15T15:48:28;13.38;;;2.65;;
66421;SDS011;53228;51.380;0.098;2022-11-15T15:50:57;11.73;;;2.95;;
66421;SDS011;53228;51.380;0.098;2022-11-15T15:53:37;18.90;;;2.63;;
66421;SDS011;53228;51.380;0.098;2022-11-15T15:56:05;15.82;;;3.00;;
66421;SDS011;53228;51.380;0.098;2022-11-15T15:58:35;15.52;;;2.78;;
66421;SDS011;53228;51.380;0.098;2022-11-15T16:01:03;13.75;;;3.55;;
66421;SDS011;53228;51.380;0.098;2022-11-15T16:03:31;10.25;;;3.05;;
66421;SDS011;53228;51.380;0.098;2022-11-15T16:06:01;16.55;;;2.60;;
66421;SDS011;53228;51.380;0.098;2022-11-15T16:08:31;10.38;;;2.20;;
66421;SDS011;53228;51.380;0.098;2022-11-15T16:11:19;12.73;;;2.45;;
66421;SDS011;53228;51.380;0.098;2022-11-15T16:13:50;10.55;;;3.08;;
66421;SDS011;53228;51.380;0.098;2022-11-15T16:16:21;17.52;;;3.72;;
66421;SDS011;53228;51.380;0.098;2022-11-15T16:18:49;8.90;;;2.83;;
66421;SDS011;53228;51.380;0.098;2022-11-15T16:21:21;14.60;;;3.10;;
66421;SDS011;53228;51.380;0.098;2022-11-15T16:23:49;20.35;;;3.72;;
66421;SDS011;53228;51.380;0.098;2022-11-15T16:26:21;18.98;;;3.50;;
66421;SDS011;53228;51.380;0.098;2022-11-15T16:28:53;11.27;;;3.55;;
66421;SDS011;53228;51.380;0.098;2022-11-15T16:31:21;13.90;;;3.60;;
66421;SDS011;53228;51.380;0.098;2022-11-15T16:33:51;25.92;;;4.53;;
66421;SDS011;53228;51.380;0.098;2022-11-15T16:36:21;17.58;;;4.63;;
66421;SDS011;53228;51.380;0.098;2022-11-15T16:38:56;21.35;;;4.82;;
66421;SDS011;53228;51.380;0.098;2022-11-15T16:41:25;14.98;;;4.20;;
66421;SDS011;53228;51.380;0.098;2022-11-15T16:43:53;16.77;;;4.55;;
66421;SDS011;53228;51.380;0.098;2022-11-15T16:46:25;13.07;;;4.15;;
66421;SDS011;53228;51.380;0.098;2022-11-15T16:48:55;13.10;;;3.88;;
66421;SDS011;53228;51.380;0.098;2022-11-15T16:51:23;15.50;;;3.45;;
66421;SDS011;53228;51.380;0.098;2022-11-15T16:53:54;20.27;;;3.78;;
66421;SDS011;53228;51.380;0.098;2022-11-15T16:56:30;10.00;;;3.22;;
66421;SDS011;53228;51.380;0.098;2022-11-15T16:58:59;25.70;;;7.00;;
66421;SDS011;53228;51.380;0.098;2022-11-15T17:01:29;22.45;;;8.65;;
66421;SDS011;53228;51.380;0.098;2022-11-15T17:03:59;18.33;;;6.13;;
66421;SDS011;53228;51.380;0.098;2022-11-15T17:06:39;15.43;;;4.45;;
66421;SDS011;53228;51.380;0.098;2022-11-15T17:09:10;16.63;;;4.45;;
66421;SDS011;53228;51.380;0.098;2022-11-15T17:11:46;16.73;;;3.85;;
66421;SDS011;53228;51.380;0.098;2022-11-15T17:14:14;12.05;;;3.65;;
66421;SDS011;53228;51.380;0.098;2022-11-15T17:16:43;13.77;;;3.90;;
66421;SDS011;53228;51.380;0.098;2022-11-15T17:19:15;14.48;;;3.60;;
66421;SDS011;53228;51.380;0.098;2022-11-15T17:21:45;15.02;;;3.30;;
66421;SDS011;53228;51.380;0.098;2022-11-15T17:24:19;14.80;;;5.40;;
66421;SDS011;53228;51.380;0.098;2022-11-15T17:26:50;14.98;;;3.60;;
66421;SDS011;53228;51.380;0.098;2022-11-15T17:29:19;15.75;;;4.78;;
66421;SDS011;53228;51.380;0.098;2022-11-15T17:31:47;19.92;;;7.10;;
66421;SDS011;53228;51.380;0.098;2022-11-15T17:34:18;16.80;;;6.03;;
66421;SDS011;53228;51.380;0.098;2022-11-15T17:36:47;15.02;;;4.80;;
66421;SDS011;53228;51.380;0.098;2022-11-15T17:39:15;18.83;;;4.95;;
66421;SDS011;53228;51.380;0.098;2022-11-15T17:41:51;17.15;;;5.38;;
66421;SDS011;53228;51.380;0.098;2022-11-15T17:44:19;16.08;;;6.32;;
66421;SDS011;53228;51.380;0.098;2022-11-15T17:46:47;12.68;;;6.05;;
66421;SDS011;53228;51.380;0.098;2022-11-15T17:49:16;15.25;;;6.55;;
66421;SDS011;53228;51.380;0.098;2022-11-15T17:51:43;22.83;;;7.43;;
66421;SDS011;53228;51.380;0.098;2022-11-15T17:54:19;23.55;;;8.95;;
66421;SDS011;53228;51.380;0.098;2022-11-15T17:56:50;29.90;;;12.30;;
66421;SDS011;53228;51.380;0.098;2022-11-15T17:59:19;30.60;;;12.40;;
66421;SDS011;53228;51.380;0.098;2022-11-15T18:01:48;30.55;;;12.50;;
66421;SDS011;53228;51.380;0.098;2022-11-15T18:04:19;30.40;;;11.32;;
66421;SDS011;53228;51.380;0.098;2022-11-15T18:06:57;29.70;;;10.20;;
66421;SDS011;53228;51.380;0.098;2022-11-15T18:09:25;27.27;;;11.65;;
66421;SDS011;53228;51.380;0.098;2022-11-15T18:11:53;32.13;;;11.25;;
66421;SDS011;53228;51.380;0.098;2022-11-15T18:14:22;25.42;;;8.90;;
66421;SDS011;53228;51.380;0.098;2022-11-15T18:16:52;24.33;;;9.57;;
66421;SDS011;53228;51.380;0.098;2022-11-15T18:19:23;24.13;;;8.98;;
66421;SDS011;53228;51.380;0.098;2022-11-15T18:21:51;30.45;;;9.98;;
66421;SDS011;53228;51.380;0.098;2022-11-15T18:24:27;18.55;;;8.48;;
66421;SDS011;53228;51.380;0.098;2022-11-15T18:27:00;29.25;;;8.57;;
66421;SDS011;53228;51.380;0.098;2022-11-15T18:29:29;22.38;;;7.35;;
66421;SDS011;53228;51.380;0.098;2022-11-15T18:31:57;24.90;;;8.82;;
66421;SDS011;53228;51.380;0.098;2022-11-15T18:34:27;22.30;;;8.95;;
66421;SDS011;53228;51.380;0.098;2022-11-15T18:37:01;25.65;;;10.23;;
66421;SDS011;53228;51.380;0.098;2022-11-15T18:39:29;20.55;;;10.60;;
66421;SDS011;53228;51.380;0.098;2022-11-15T18:41:58;33.78;;;14.05;;
66421;SDS011;53228;51.380;0.098;2022-11-15T18:44:32;45.05;;;11.95;;
66421;SDS011;53228;51.380;0.098;2022-11-15T18:47:00;37.38;;;14.60;;
66421;SDS011;53228;51.380;0.098;2022-11-15T18:49:28;36.22;;;14.57;;
66421;SDS011;53228;51.380;0.098;2022-11-15T18:51:57;36.67;;;16.25;;
66421;SDS011;53228;51.380;0.098;2022-11-15T18:54:29;32.95;;;14.75;;
66421;SDS011;53228;51.380;0.098;2022-11-15T18:56:57;33.72;;;13.98;;